x

Lake Of The Woods (45148) Weather Station

3:00pm - Mon 28th Jul 2014 All times are UTC.

  • Wind
    7mph, 11mph gusts
  • Sea Temp 69°f
  • Air Temp 67°f
  • Sea Pressure 1023.7mb

More Historic Weather Station data

Upgrade to MSW Pro to gain access to the past 30 days of data for over 8000 Wavebouys and Weather Stations around the globe.

Join Pro

Comparision Forecast

View Surf forecast
   
Mon 07/28 3:00pm 7 11 mph 1023.7mb 69f 67f
2:00pm 4 7 mph 1023.8mb 69f 64f
1:00pm 9 11 mph 1023.8mb 69f 62f
12:00pm 9 11 mph 1023.4mb 69f 61f
11:00am 11
mph
1023.3mb 69f 60f
10:00am 11 13 mph 1023mb 69f 61f
9:00am 11
mph
1022.8mb 69f 61f
8:00am 11
mph
1022.5mb 69f 62f
7:00am 11 13 mph 1022.3mb 69f 62f
6:00am 9 11 mph 1022.2mb 69f 63f
5:00am 7
mph
1022mb 69f 64f
4:00am 4 7 mph 1021.9mb 69f 65f
3:00am 4 7 mph 1021.6mb 70f 66f
2:00am 4 7 mph 1021.3mb 70f 67f
1:00am 7 9 mph 1020.9mb 70f 69f
12:00am 9 13 mph 1020.6mb 70f 69f
Sun 07/27 11:00pm 9 13 mph 1020.5mb 70f 69f
10:00pm 11 13 mph 1020.4mb 70f 69f
9:00pm 11 16 mph 1020.1mb 70f 68f
8:00pm 11 16 mph 1020.1mb 70f 67f
7:00pm 11 13 mph 1019.9mb 70f 66f
6:00pm 13 20 mph 1019.6mb 69f 65f
5:00pm 16 20 mph 1019mb 69f 64f
4:00pm 13 18 mph 1018.4mb 69f 62f
3:00pm 18 22 mph 1017.6mb 69f 61f
2:00pm 18 22 mph 1016.5mb 68f 60f
1:00pm 18 22 mph 1015.5mb 68f 60f
12:00pm 18 22 mph 1014mb 68f 60f
11:00am 18 25 mph 1012.7mb 68f 60f
10:00am 18 22 mph 1011.6mb 68f 61f
9:00am 18 20 mph 1010.4mb 68f 62f
8:00am 18 22 mph 1009.2mb 68f 62f
7:00am 18 22 mph 1008.4mb 68f 64f
6:00am 18 22 mph 1007.2mb 68f 64f
5:00am 9 11 mph 1006.5mb 68f 65f
4:00am 9 11 mph 1006.1mb 68f 65f
3:00am 9
mph
1006mb 68f 67f
2:00am 9 11 mph 1005.5mb 68f 69f
1:00am 9 11 mph 1005.2mb 68f 69f
12:00am 13 18 mph 1005.1mb 69f 70f
Sat 07/26 11:00pm 18 22 mph 1004.9mb 69f 70f
10:00pm 18 20 mph 1004.3mb 69f 73f
9:00pm 18 22 mph 1004.3mb 70f 74f
8:00pm 18 20 mph 1004.3mb 71f 75f
7:00pm 16 18 mph 1005mb 71f 76f
6:00pm 9 13 mph 1005.3mb 71f 74f
5:00pm 7 11 mph 1005.7mb 71f 74f
4:00pm 9
mph
1006.1mb 70f 71f
3:00pm 7 9 mph 1006.7mb 70f 70f
2:00pm 4 7 mph 1006.7mb 70f 68f
1:00pm 9
mph
1006.9mb 70f 67f
12:00pm 11 13 mph 1006.8mb 70f 65f
11:00am 11 13 mph 1006.8mb 70f 64f
10:00am 13 18 mph 1006.5mb 70f 65f
9:00am 13 16 mph 1006.4mb 70f 65f
8:00am 11 13 mph 1006.2mb 71f 66f
7:00am 9 11 mph 1005.9mb 71f 67f
6:00am 9 11 mph 1006.3mb 71f 68f
5:00am 7 9 mph 1006.3mb 70f 68f
4:00am 4 7 mph 1006.4mb 71f 68f
3:00am 7 9 mph 1005.7mb 71f 70f
2:00am 13 18 mph 1005.5mb 71f 69f
1:00am 9 11 mph 1005.1mb 72f 73f
12:00am 9 13 mph 1005.6mb 72f 73f
Fri 07/25 11:00pm 9 11 mph 1005.5mb 73f 74f
10:00pm 11 13 mph 1005.7mb 73f 73f
9:00pm 7
mph
1006.1mb 74f 74f
8:00pm 9 11 mph 1006.1mb 73f 73f
7:00pm 7
mph
1006.7mb 71f 72f
6:00pm 4
mph
1007.2mb 72f 71f
5:00pm 2 4 mph 1007.8mb 71f 71f
4:00pm 4 7 mph 1008.2mb 71f 69f
3:00pm 7 9 mph 1008.6mb 71f 68f
2:00pm 4 7 mph 1008.5mb 70f 68f
1:00pm 9 11 mph 1007.9mb 70f 68f
12:00pm 9 11 mph 1007.7mb 70f 67f
11:00am 9 11 mph 1008mb 71f 67f
10:00am 11 13 mph 1008.2mb 71f 67f
9:00am 7 9 mph 1009.5mb 71f 67f
8:00am 4 7 mph 1010.2mb 71f 67f
7:00am 7 9 mph 1010.8mb 71f 69f
6:00am 7
mph
1011.2mb 71f 69f
5:00am 4
mph
1011.9mb 71f 69f
4:00am 7
mph
1011mb 71f 69f
3:00am 7
mph
1011.1mb 71f 70f
2:00am 4
mph
1011.6mb 72f 71f
1:00am 7
mph
1012.9mb 72f 72f
12:00am 4
mph
1013.3mb 72f 73f
Thu 07/24 11:00pm  -  2 mph 1013.7mb 73f 73f
10:00pm 7 9 mph 1013.7mb 72f 72f
9:00pm 2 7 mph 1014.1mb 72f 72f
8:00pm 4 7 mph 1014.4mb 73f 71f
7:00pm 7 11 mph 1015.5mb 72f 71f
6:00pm 7 11 mph 1017.3mb 71f 70f
5:00pm 7 9 mph 1018.4mb 71f 69f